sensor_id;sensor_type;location;lat;lon;timestamp;P1;durP1;ratioP1;P2;durP2;ratioP2
39996;SDS011;25688;52.338;21.072;2022-08-01T00:00:01;13.20;;;7.78;;
39996;SDS011;25688;52.338;21.072;2022-08-01T00:02:29;10.38;;;7.50;;
39996;SDS011;25688;52.338;21.072;2022-08-01T00:04:55;12.45;;;7.70;;
39996;SDS011;25688;52.338;21.072;2022-08-01T00:07:21;11.93;;;6.68;;
39996;SDS011;25688;52.338;21.072;2022-08-01T00:09:47;9.90;;;7.05;;
39996;SDS011;25688;52.338;21.072;2022-08-01T00:12:13;12.23;;;6.93;;
39996;SDS011;25688;52.338;21.072;2022-08-01T00:14:39;10.82;;;7.00;;
39996;SDS011;25688;52.338;21.072;2022-08-01T00:17:04;9.68;;;7.03;;
39996;SDS011;25688;52.338;21.072;2022-08-01T00:19:30;11.05;;;6.43;;
39996;SDS011;25688;52.338;21.072;2022-08-01T00:21:56;17.15;;;7.00;;
39996;SDS011;25688;52.338;21.072;2022-08-01T00:24:22;9.32;;;6.97;;
39996;SDS011;25688;52.338;21.072;2022-08-01T00:26:48;12.50;;;6.93;;
39996;SDS011;25688;52.338;21.072;2022-08-01T00:29:13;12.60;;;6.88;;
39996;SDS011;25688;52.338;21.072;2022-08-01T00:31:39;10.25;;;6.30;;
39996;SDS011;25688;52.338;21.072;2022-08-01T00:34:05;10.85;;;6.65;;
39996;SDS011;25688;52.338;21.072;2022-08-01T00:36:30;8.48;;;6.45;;
39996;SDS011;25688;52.338;21.072;2022-08-01T00:38:56;9.13;;;6.70;;
39996;SDS011;25688;52.338;21.072;2022-08-01T00:41:22;9.55;;;7.00;;
39996;SDS011;25688;52.338;21.072;2022-08-01T00:43:47;11.57;;;6.90;;
39996;SDS011;25688;52.338;21.072;2022-08-01T00:46:13;9.52;;;6.45;;
39996;SDS011;25688;52.338;21.072;2022-08-01T00:48:42;10.30;;;6.78;;
39996;SDS011;25688;52.338;21.072;2022-08-01T00:51:07;13.57;;;7.65;;
39996;SDS011;25688;52.338;21.072;2022-08-01T00:53:33;10.18;;;7.07;;
39996;SDS011;25688;52.338;21.072;2022-08-01T00:55:59;12.32;;;7.13;;
39996;SDS011;25688;52.338;21.072;2022-08-01T00:58:26;9.75;;;6.82;;
39996;SDS011;25688;52.338;21.072;2022-08-01T01:00:55;10.00;;;5.95;;
39996;SDS011;25688;52.338;21.072;2022-08-01T01:03:22;11.48;;;6.30;;
39996;SDS011;25688;52.338;21.072;2022-08-01T01:11:47;11.13;;;6.30;;
39996;SDS011;25688;52.338;21.072;2022-08-01T01:14:27;10.90;;;6.60;;
39996;SDS011;25688;52.338;21.072;2022-08-01T01:17:11;12.25;;;6.65;;
39996;SDS011;25688;52.338;21.072;2022-08-01T01:19:49;14.10;;;7.40;;
39996;SDS011;25688;52.338;21.072;2022-08-01T01:28:08;14.68;;;8.13;;
39996;SDS011;25688;52.338;21.072;2022-08-01T01:30:35;15.70;;;8.27;;
39996;SDS011;25688;52.338;21.072;2022-08-01T01:33:05;13.18;;;8.90;;
39996;SDS011;25688;52.338;21.072;2022-08-01T01:35:35;17.92;;;9.02;;
39996;SDS011;25688;52.338;21.072;2022-08-01T01:38:37;13.73;;;8.35;;
39996;SDS011;25688;52.338;21.072;2022-08-01T01:40:58;12.55;;;8.55;;
39996;SDS011;25688;52.338;21.072;2022-08-01T01:43:27;15.25;;;9.02;;
39996;SDS011;25688;52.338;21.072;2022-08-01T01:45:54;14.70;;;9.80;;
39996;SDS011;25688;52.338;21.072;2022-08-01T01:48:22;20.45;;;9.40;;
39996;SDS011;25688;52.338;21.072;2022-08-01T01:50:50;17.67;;;9.77;;
39996;SDS011;25688;52.338;21.072;2022-08-01T01:53:26;18.23;;;10.75;;
39996;SDS011;25688;52.338;21.072;2022-08-01T01:55:54;18.88;;;10.20;;
39996;SDS011;25688;52.338;21.072;2022-08-01T01:58:22;17.80;;;11.57;;
39996;SDS011;25688;52.338;21.072;2022-08-01T02:00:51;25.67;;;12.07;;
39996;SDS011;25688;52.338;21.072;2022-08-01T02:03:20;22.73;;;11.15;;
39996;SDS011;25688;52.338;21.072;2022-08-01T02:05:47;21.25;;;11.40;;
39996;SDS011;25688;52.338;21.072;2022-08-01T02:08:15;15.55;;;11.32;;
39996;SDS011;25688;52.338;21.072;2022-08-01T02:10:42;18.35;;;11.82;;
39996;SDS011;25688;52.338;21.072;2022-08-01T02:13:32;20.50;;;11.70;;
39996;SDS011;25688;52.338;21.072;2022-08-01T02:16:01;21.73;;;12.48;;
39996;SDS011;25688;52.338;21.072;2022-08-01T02:18:28;17.20;;;11.65;;
39996;SDS011;25688;52.338;21.072;2022-08-01T02:20:55;19.38;;;11.48;;
39996;SDS011;25688;52.338;21.072;2022-08-01T02:23:23;20.27;;;12.20;;
39996;SDS011;25688;52.338;21.072;2022-08-01T02:25:53;16.05;;;11.43;;
39996;SDS011;25688;52.338;21.072;2022-08-01T02:28:22;16.50;;;11.00;;
39996;SDS011;25688;52.338;21.072;2022-08-01T02:30:52;18.85;;;11.18;;
39996;SDS011;25688;52.338;21.072;2022-08-01T02:33:21;21.38;;;13.02;;
39996;SDS011;25688;52.338;21.072;2022-08-01T02:35:54;22.27;;;12.52;;
39996;SDS011;25688;52.338;21.072;2022-08-01T02:38:23;22.13;;;10.95;;
39996;SDS011;25688;52.338;21.072;2022-08-01T02:40:52;24.13;;;12.10;;
39996;SDS011;25688;52.338;21.072;2022-08-01T02:43:23;17.70;;;10.98;;
39996;SDS011;25688;52.338;21.072;2022-08-01T02:45:52;17.70;;;10.50;;
39996;SDS011;25688;52.338;21.072;2022-08-01T02:48:21;20.42;;;11.55;;
39996;SDS011;25688;52.338;21.072;2022-08-01T02:50:51;18.33;;;11.55;;
39996;SDS011;25688;52.338;21.072;2022-08-01T02:53:19;18.33;;;11.65;;
39996;SDS011;25688;52.338;21.072;2022-08-01T02:55:47;21.35;;;12.25;;
39996;SDS011;25688;52.338;21.072;2022-08-01T02:58:15;19.95;;;11.60;;
39996;SDS011;25688;52.338;21.072;2022-08-01T03:00:43;22.02;;;11.23;;
39996;SDS011;25688;52.338;21.072;2022-08-01T03:03:10;20.52;;;9.90;;
39996;SDS011;25688;52.338;21.072;2022-08-01T03:05:38;19.50;;;10.40;;
39996;SDS011;25688;52.338;21.072;2022-08-01T03:08:06;24.83;;;11.10;;
39996;SDS011;25688;52.338;21.072;2022-08-01T03:10:33;17.63;;;11.10;;
39996;SDS011;25688;52.338;21.072;2022-08-01T03:13:06;18.63;;;12.13;;
39996;SDS011;25688;52.338;21.072;2022-08-01T03:15:34;22.60;;;11.27;;
39996;SDS011;25688;52.338;21.072;2022-08-01T03:18:04;20.67;;;11.05;;
39996;SDS011;25688;52.338;21.072;2022-08-01T03:20:33;18.55;;;11.75;;
39996;SDS011;25688;52.338;21.072;2022-08-01T03:23:03;16.40;;;10.55;;
39996;SDS011;25688;52.338;21.072;2022-08-01T03:25:31;17.08;;;11.05;;
39996;SDS011;25688;52.338;21.072;2022-08-01T03:28:01;22.10;;;12.65;;
39996;SDS011;25688;52.338;21.072;2022-08-01T03:30:29;17.05;;;12.38;;
39996;SDS011;25688;52.338;21.072;2022-08-01T03:32:56;20.88;;;11.90;;
39996;SDS011;25688;52.338;21.072;2022-08-01T03:35:23;18.13;;;12.48;;
39996;SDS011;25688;52.338;21.072;2022-08-01T03:37:55;20.08;;;11.27;;
39996;SDS011;25688;52.338;21.072;2022-08-01T03:42:56;23.98;;;13.45;;
39996;SDS011;25688;52.338;21.072;2022-08-01T03:45:27;22.98;;;13.88;;
39996;SDS011;25688;52.338;21.072;2022-08-01T03:48:01;21.50;;;14.15;;
39996;SDS011;25688;52.338;21.072;2022-08-01T03:50:30;22.10;;;13.18;;
39996;SDS011;25688;52.338;21.072;2022-08-01T03:52:59;24.48;;;14.50;;
39996;SDS011;25688;52.338;21.072;2022-08-01T03:55:27;26.25;;;15.80;;
39996;SDS011;25688;52.338;21.072;2022-08-01T03:57:54;30.80;;;15.52;;
39996;SDS011;25688;52.338;21.072;2022-08-01T04:00:21;25.33;;;15.32;;
39996;SDS011;25688;52.338;21.072;2022-08-01T04:02:49;29.13;;;16.85;;
39996;SDS011;25688;52.338;21.072;2022-08-01T04:05:17;24.73;;;15.60;;
39996;SDS011;25688;52.338;21.072;2022-08-01T04:07:47;25.00;;;16.90;;
39996;SDS011;25688;52.338;21.072;2022-08-01T04:10:24;44.90;;;17.47;;
39996;SDS011;25688;52.338;21.072;2022-08-01T04:12:51;27.85;;;16.38;;
39996;SDS011;25688;52.338;21.072;2022-08-01T04:15:17;28.17;;;14.77;;
39996;SDS011;25688;52.338;21.072;2022-08-01T04:17:42;22.67;;;15.43;;
39996;SDS011;25688;52.338;21.072;2022-08-01T04:20:09;24.85;;;15.40;;
39996;SDS011;25688;52.338;21.072;2022-08-01T04:22:36;21.80;;;14.85;;
39996;SDS011;25688;52.338;21.072;2022-08-01T04:25:03;19.63;;;13.48;;
39996;SDS011;25688;52.338;21.072;2022-08-01T04:27:36;20.95;;;13.63;;
39996;SDS011;25688;52.338;21.072;2022-08-01T04:30:04;21.88;;;13.68;;
39996;SDS011;25688;52.338;21.072;2022-08-01T04:32:31;24.52;;;13.30;;
39996;SDS011;25688;52.338;21.072;2022-08-01T04:35:02;18.55;;;13.07;;
39996;SDS011;25688;52.338;21.072;2022-08-01T04:37:31;21.13;;;12.23;;
39996;SDS011;25688;52.338;21.072;2022-08-01T04:40:02;18.98;;;12.88;;
39996;SDS011;25688;52.338;21.072;2022-08-01T04:42:30;16.08;;;11.93;;
39996;SDS011;25688;52.338;21.072;2022-08-01T04:44:58;20.88;;;11.48;;
39996;SDS011;25688;52.338;21.072;2022-08-01T04:47:24;14.10;;;10.10;;
39996;SDS011;25688;52.338;21.072;2022-08-01T04:49:51;15.10;;;10.15;;
39996;SDS011;25688;52.338;21.072;2022-08-01T04:52:18;18.52;;;11.25;;
39996;SDS011;25688;52.338;21.072;2022-08-01T04:54:44;17.25;;;10.60;;
39996;SDS011;25688;52.338;21.072;2022-08-01T04:57:11;18.92;;;12.75;;
39996;SDS011;25688;52.338;21.072;2022-08-01T04:59:38;13.35;;;9.23;;
39996;SDS011;25688;52.338;21.072;2022-08-01T05:02:09;15.40;;;9.70;;
39996;SDS011;25688;52.338;21.072;2022-08-01T05:07:06;12.48;;;8.27;;
39996;SDS011;25688;52.338;21.072;2022-08-01T05:09:32;14.15;;;8.85;;
39996;SDS011;25688;52.338;21.072;2022-08-01T05:11:59;13.05;;;9.02;;
39996;SDS011;25688;52.338;21.072;2022-08-01T05:14:27;10.70;;;8.25;;
39996;SDS011;25688;52.338;21.072;2022-08-01T05:16:54;12.60;;;8.38;;
39996;SDS011;25688;52.338;21.072;2022-08-01T05:19:20;13.65;;;8.57;;
39996;SDS011;25688;52.338;21.072;2022-08-01T05:21:46;17.05;;;8.85;;
39996;SDS011;25688;52.338;21.072;2022-08-01T05:24:12;14.63;;;9.30;;
39996;SDS011;25688;52.338;21.072;2022-08-01T05:26:38;26.05;;;9.57;;
39996;SDS011;25688;52.338;21.072;2022-08-01T05:29:04;10.85;;;8.25;;
39996;SDS011;25688;52.338;21.072;2022-08-01T05:31:30;17.88;;;9.77;;
39996;SDS011;25688;52.338;21.072;2022-08-01T05:33:59;17.30;;;10.70;;
39996;SDS011;25688;52.338;21.072;2022-08-01T05:36:25;18.17;;;11.48;;
39996;SDS011;25688;52.338;21.072;2022-08-01T05:38:51;16.27;;;11.73;;
39996;SDS011;25688;52.338;21.072;2022-08-01T05:41:17;15.88;;;12.07;;
39996;SDS011;25688;52.338;21.072;2022-08-01T05:43:43;23.45;;;14.60;;
39996;SDS011;25688;52.338;21.072;2022-08-01T05:46:08;22.42;;;15.00;;
39996;SDS011;25688;52.338;21.072;2022-08-01T05:48:34;27.23;;;16.67;;
39996;SDS011;25688;52.338;21.072;2022-08-01T05:51:00;21.70;;;14.70;;
39996;SDS011;25688;52.338;21.072;2022-08-01T05:53:26;16.35;;;12.45;;
39996;SDS011;25688;52.338;21.072;2022-08-01T05:55:51;17.05;;;12.30;;
39996;SDS011;25688;52.338;21.072;2022-08-01T05:58:17;16.50;;;11.07;;
39996;SDS011;25688;52.338;21.072;2022-08-01T06:00:43;14.20;;;10.55;;
39996;SDS011;25688;52.338;21.072;2022-08-01T06:03:08;12.63;;;9.40;;
39996;SDS011;25688;52.338;21.072;2022-08-01T06:05:36;16.80;;;8.68;;
39996;SDS011;25688;52.338;21.072;2022-08-01T06:08:02;15.05;;;8.40;;
39996;SDS011;25688;52.338;21.072;2022-08-01T06:10:28;10.88;;;8.18;;
39996;SDS011;25688;52.338;21.072;2022-08-01T06:12:54;14.80;;;8.18;;
39996;SDS011;25688;52.338;21.072;2022-08-01T06:15:20;13.50;;;9.13;;
39996;SDS011;25688;52.338;21.072;2022-08-01T06:17:46;11.25;;;9.02;;
39996;SDS011;25688;52.338;21.072;2022-08-01T06:20:12;9.25;;;6.90;;
39996;SDS011;25688;52.338;21.072;2022-08-01T06:22:40;18.38;;;7.60;;
39996;SDS011;25688;52.338;21.072;2022-08-01T06:25:06;10.57;;;7.05;;
39996;SDS011;25688;52.338;21.072;2022-08-01T06:27:35;10.82;;;6.57;;
39996;SDS011;25688;52.338;21.072;2022-08-01T06:30:02;11.50;;;6.40;;
39996;SDS011;25688;52.338;21.072;2022-08-01T06:32:29;8.98;;;5.30;;
39996;SDS011;25688;52.338;21.072;2022-08-01T06:34:56;8.45;;;4.25;;
39996;SDS011;25688;52.338;21.072;2022-08-01T06:37:22;10.02;;;5.35;;
39996;SDS011;25688;52.338;21.072;2022-08-01T06:39:48;12.02;;;5.32;;
39996;SDS011;25688;52.338;21.072;2022-08-01T06:42:14;11.55;;;4.88;;
39996;SDS011;25688;52.338;21.072;2022-08-01T06:44:40;7.28;;;4.07;;
39996;SDS011;25688;52.338;21.072;2022-08-01T06:47:06;6.15;;;3.92;;
39996;SDS011;25688;52.338;21.072;2022-08-01T06:49:32;10.05;;;4.88;;
39996;SDS011;25688;52.338;21.072;2022-08-01T06:51:58;9.23;;;4.63;;
39996;SDS011;25688;52.338;21.072;2022-08-01T06:54:23;7.00;;;4.25;;
39996;SDS011;25688;52.338;21.072;2022-08-01T06:56:49;7.68;;;4.60;;
39996;SDS011;25688;52.338;21.072;2022-08-01T06:59:15;7.13;;;4.60;;
39996;SDS011;25688;52.338;21.072;2022-08-01T07:01:40;8.98;;;4.68;;
39996;SDS011;25688;52.338;21.072;2022-08-01T07:04:06;9.15;;;4.15;;
39996;SDS011;25688;52.338;21.072;2022-08-01T07:06:32;11.60;;;3.78;;
39996;SDS011;25688;52.338;21.072;2022-08-01T07:08:57;8.77;;;5.05;;
39996;SDS011;25688;52.338;21.072;2022-08-01T07:11:25;7.82;;;4.93;;
39996;SDS011;25688;52.338;21.072;2022-08-01T07:13:50;7.70;;;4.75;;
39996;SDS011;25688;52.338;21.072;2022-08-01T07:16:16;8.05;;;4.00;;
39996;SDS011;25688;52.338;21.072;2022-08-01T07:18:42;9.50;;;4.05;;
39996;SDS011;25688;52.338;21.072;2022-08-01T07:21:08;7.93;;;3.80;;
39996;SDS011;25688;52.338;21.072;2022-08-01T07:23:34;7.22;;;3.50;;
39996;SDS011;25688;52.338;21.072;2022-08-01T07:26:00;9.02;;;3.88;;
39996;SDS011;25688;52.338;21.072;2022-08-01T07:28:29;8.10;;;3.42;;
39996;SDS011;25688;52.338;21.072;2022-08-01T07:30:55;5.47;;;3.80;;
39996;SDS011;25688;52.338;21.072;2022-08-01T07:33:20;6.38;;;3.47;;
39996;SDS011;25688;52.338;21.072;2022-08-01T07:35:47;5.43;;;3.13;;
39996;SDS011;25688;52.338;21.072;2022-08-01T07:38:13;7.45;;;3.00;;
39996;SDS011;25688;52.338;21.072;2022-08-01T07:40:41;8.25;;;3.22;;
39996;SDS011;25688;52.338;21.072;2022-08-01T07:43:08;9.70;;;3.33;;
39996;SDS011;25688;52.338;21.072;2022-08-01T07:45:34;7.13;;;2.95;;
39996;SDS011;25688;52.338;21.072;2022-08-01T07:48:05;5.50;;;2.72;;
39996;SDS011;25688;52.338;21.072;2022-08-01T07:50:32;7.60;;;2.42;;
39996;SDS011;25688;52.338;21.072;2022-08-01T07:52:58;6.10;;;2.67;;
39996;SDS011;25688;52.338;21.072;2022-08-01T07:55:25;6.70;;;2.40;;
39996;SDS011;25688;52.338;21.072;2022-08-01T07:57:51;4.90;;;1.83;;
39996;SDS011;25688;52.338;21.072;2022-08-01T08:00:17;4.25;;;2.35;;
39996;SDS011;25688;52.338;21.072;2022-08-01T08:02:43;3.97;;;1.92;;
39996;SDS011;25688;52.338;21.072;2022-08-01T08:05:10;5.43;;;1.90;;
39996;SDS011;25688;52.338;21.072;2022-08-01T08:07:36;5.82;;;1.92;;
39996;SDS011;25688;52.338;21.072;2022-08-01T08:10:02;3.92;;;1.88;;
39996;SDS011;25688;52.338;21.072;2022-08-01T08:12:29;6.28;;;1.90;;
39996;SDS011;25688;52.338;21.072;2022-08-01T08:14:56;8.23;;;1.90;;
39996;SDS011;25688;52.338;21.072;2022-08-01T08:17:23;4.70;;;1.60;;
39996;SDS011;25688;52.338;21.072;2022-08-01T08:19:50;5.90;;;1.85;;
39996;SDS011;25688;52.338;21.072;2022-08-01T08:22:15;5.55;;;1.70;;
39996;SDS011;25688;52.338;21.072;2022-08-01T08:24:41;5.18;;;1.60;;
39996;SDS011;25688;52.338;21.072;2022-08-01T08:27:07;4.15;;;1.60;;
39996;SDS011;25688;52.338;21.072;2022-08-01T08:29:32;4.50;;;1.60;;
39996;SDS011;25688;52.338;21.072;2022-08-01T08:31:58;4.85;;;1.40;;
39996;SDS011;25688;52.338;21.072;2022-08-01T08:34:25;3.92;;;1.33;;
39996;SDS011;25688;52.338;21.072;2022-08-01T08:36:52;3.75;;;1.45;;
39996;SDS011;25688;52.338;21.072;2022-08-01T08:39:19;2.88;;;1.40;;
39996;SDS011;25688;52.338;21.072;2022-08-01T08:41:45;3.88;;;1.40;;
39996;SDS011;25688;52.338;21.072;2022-08-01T08:44:11;3.35;;;1.60;;
39996;SDS011;25688;52.338;21.072;2022-08-01T08:46:41;4.20;;;1.70;;
39996;SDS011;25688;52.338;21.072;2022-08-01T08:49:11;4.72;;;1.40;;
39996;SDS011;25688;52.338;21.072;2022-08-01T08:51:40;4.40;;;1.70;;
39996;SDS011;25688;52.338;21.072;2022-08-01T08:54:07;6.03;;;1.70;;
39996;SDS011;25688;52.338;21.072;2022-08-01T08:56:36;3.35;;;1.38;;
39996;SDS011;25688;52.338;21.072;2022-08-01T08:59:03;3.90;;;1.73;;
39996;SDS011;25688;52.338;21.072;2022-08-01T09:01:30;3.85;;;1.52;;
39996;SDS011;25688;52.338;21.072;2022-08-01T09:03:58;6.97;;;1.50;;
39996;SDS011;25688;52.338;21.072;2022-08-01T09:06:24;4.22;;;1.63;;
39996;SDS011;25688;52.338;21.072;2022-08-01T09:08:50;7.00;;;1.88;;
39996;SDS011;25688;52.338;21.072;2022-08-01T09:11:16;4.88;;;2.10;;
39996;SDS011;25688;52.338;21.072;2022-08-01T09:13:41;4.28;;;2.00;;
39996;SDS011;25688;52.338;21.072;2022-08-01T09:16:30;7.25;;;2.08;;
39996;SDS011;25688;52.338;21.072;2022-08-01T09:19:12;5.78;;;1.85;;
39996;SDS011;25688;52.338;21.072;2022-08-01T09:21:56;6.35;;;1.98;;
39996;SDS011;25688;52.338;21.072;2022-08-01T09:24:24;3.85;;;1.63;;
39996;SDS011;25688;52.338;21.072;2022-08-01T09:26:51;7.25;;;1.85;;
39996;SDS011;25688;52.338;21.072;2022-08-01T09:29:18;6.20;;;1.83;;
39996;SDS011;25688;52.338;21.072;2022-08-01T09:31:46;5.95;;;1.63;;
39996;SDS011;25688;52.338;21.072;2022-08-01T09:34:12;5.05;;;1.52;;
39996;SDS011;25688;52.338;21.072;2022-08-01T09:36:58;4.65;;;1.77;;
39996;SDS011;25688;52.338;21.072;2022-08-01T09:41:56;4.13;;;1.65;;
39996;SDS011;25688;52.338;21.072;2022-08-01T09:44:39;5.85;;;1.77;;
39996;SDS011;25688;52.338;21.072;2022-08-01T09:47:07;4.32;;;1.85;;
39996;SDS011;25688;52.338;21.072;2022-08-01T09:49:34;5.65;;;1.63;;
39996;SDS011;25688;52.338;21.072;2022-08-01T09:52:11;6.70;;;2.00;;
39996;SDS011;25688;52.338;21.072;2022-08-01T09:54:51;4.32;;;1.98;;
39996;SDS011;25688;52.338;21.072;2022-08-01T09:57:19;4.78;;;1.80;;
39996;SDS011;25688;52.338;21.072;2022-08-01T09:59:47;4.95;;;1.75;;
39996;SDS011;25688;52.338;21.072;2022-08-01T10:04:56;6.55;;;1.65;;
39996;SDS011;25688;52.338;21.072;2022-08-01T10:07:23;5.80;;;1.83;;
39996;SDS011;25688;52.338;21.072;2022-08-01T10:09:48;6.22;;;1.65;;
39996;SDS011;25688;52.338;21.072;2022-08-01T10:12:16;5.28;;;2.00;;
39996;SDS011;25688;52.338;21.072;2022-08-01T10:14:44;3.33;;;1.58;;
39996;SDS011;25688;52.338;21.072;2022-08-01T10:17:13;3.83;;;1.50;;
39996;SDS011;25688;52.338;21.072;2022-08-01T10:19:41;4.95;;;1.80;;
39996;SDS011;25688;52.338;21.072;2022-08-01T10:22:08;5.50;;;1.88;;
39996;SDS011;25688;52.338;21.072;2022-08-01T10:24:36;4.47;;;1.65;;
39996;SDS011;25688;52.338;21.072;2022-08-01T10:27:06;5.80;;;1.42;;
39996;SDS011;25688;52.338;21.072;2022-08-01T10:29:40;6.57;;;1.60;;
39996;SDS011;25688;52.338;21.072;2022-08-01T10:32:07;3.35;;;1.42;;
39996;SDS011;25688;52.338;21.072;2022-08-01T10:34:34;3.47;;;1.58;;
39996;SDS011;25688;52.338;21.072;2022-08-01T10:37:02;4.50;;;1.83;;
39996;SDS011;25688;52.338;21.072;2022-08-01T10:39:30;4.80;;;1.25;;
39996;SDS011;25688;52.338;21.072;2022-08-01T10:41:57;6.30;;;1.55;;
39996;SDS011;25688;52.338;21.072;2022-08-01T10:44:24;3.85;;;1.52;;
39996;SDS011;25688;52.338;21.072;2022-08-01T10:46:52;3.25;;;1.52;;
39996;SDS011;25688;52.338;21.072;2022-08-01T10:51:51;3.88;;;1.63;;
39996;SDS011;25688;52.338;21.072;2022-08-01T10:54:17;3.67;;;1.25;;
39996;SDS011;25688;52.338;21.072;2022-08-01T10:56:44;7.25;;;1.63;;
39996;SDS011;25688;52.338;21.072;2022-08-01T10:59:13;5.97;;;1.52;;
39996;SDS011;25688;52.338;21.072;2022-08-01T11:02:03;5.28;;;1.70;;
39996;SDS011;25688;52.338;21.072;2022-08-01T11:04:53;4.18;;;1.55;;
39996;SDS011;25688;52.338;21.072;2022-08-01T11:07:48;3.47;;;1.35;;
39996;SDS011;25688;52.338;21.072;2022-08-01T11:10:25;2.78;;;1.30;;
39996;SDS011;25688;52.338;21.072;2022-08-01T11:12:53;3.85;;;1.40;;
39996;SDS011;25688;52.338;21.072;2022-08-01T11:15:20;4.15;;;1.40;;
39996;SDS011;25688;52.338;21.072;2022-08-01T11:17:50;4.65;;;1.50;;
39996;SDS011;25688;52.338;21.072;2022-08-01T11:20:21;6.03;;;1.73;;
39996;SDS011;25688;52.338;21.072;2022-08-01T11:25:27;6.25;;;1.80;;
39996;SDS011;25688;52.338;21.072;2022-08-01T11:30:49;4.43;;;1.60;;
39996;SDS011;25688;52.338;21.072;2022-08-01T11:33:17;4.05;;;1.60;;
39996;SDS011;25688;52.338;21.072;2022-08-01T11:41:13;3.80;;;1.65;;
39996;SDS011;25688;52.338;21.072;2022-08-01T11:43:57;5.22;;;1.40;;
39996;SDS011;25688;52.338;21.072;2022-08-01T11:49:23;6.00;;;2.00;;
39996;SDS011;25688;52.338;21.072;2022-08-01T11:52:10;4.60;;;1.73;;
39996;SDS011;25688;52.338;21.072;2022-08-01T11:54:40;6.85;;;1.90;;
39996;SDS011;25688;52.338;21.072;2022-08-01T11:57:14;4.75;;;1.90;;
39996;SDS011;25688;52.338;21.072;2022-08-01T11:59:44;4.70;;;1.52;;
39996;SDS011;25688;52.338;21.072;2022-08-01T12:05:08;6.53;;;1.60;;
39996;SDS011;25688;52.338;21.072;2022-08-01T12:07:37;5.03;;;1.80;;
39996;SDS011;25688;52.338;21.072;2022-08-01T12:10:08;5.32;;;1.80;;
39996;SDS011;25688;52.338;21.072;2022-08-01T12:12:45;6.63;;;1.80;;
39996;SDS011;25688;52.338;21.072;2022-08-01T12:15:13;5.03;;;1.98;;
39996;SDS011;25688;52.338;21.072;2022-08-01T12:17:43;3.78;;;1.73;;
39996;SDS011;25688;52.338;21.072;2022-08-01T12:20:15;5.97;;;1.70;;
39996;SDS011;25688;52.338;21.072;2022-08-01T12:22:46;4.75;;;1.60;;
39996;SDS011;25688;52.338;21.072;2022-08-01T12:25:13;9.07;;;2.22;;
39996;SDS011;25688;52.338;21.072;2022-08-01T12:27:41;4.70;;;1.77;;
39996;SDS011;25688;52.338;21.072;2022-08-01T12:30:12;3.25;;;1.45;;
39996;SDS011;25688;52.338;21.072;2022-08-01T12:35:07;3.50;;;1.55;;
39996;SDS011;25688;52.338;21.072;2022-08-01T12:37:35;3.65;;;1.52;;
39996;SDS011;25688;52.338;21.072;2022-08-01T12:42:43;8.25;;;2.05;;
39996;SDS011;25688;52.338;21.072;2022-08-01T12:45:12;6.30;;;1.75;;
39996;SDS011;25688;52.338;21.072;2022-08-01T12:47:39;4.97;;;1.88;;
39996;SDS011;25688;52.338;21.072;2022-08-01T12:50:06;5.00;;;1.90;;
39996;SDS011;25688;52.338;21.072;2022-08-01T12:52:35;5.03;;;1.70;;
39996;SDS011;25688;52.338;21.072;2022-08-01T12:55:06;3.65;;;1.70;;
39996;SDS011;25688;52.338;21.072;2022-08-01T12:57:34;4.47;;;1.80;;
39996;SDS011;25688;52.338;21.072;2022-08-01T13:00:05;4.68;;;1.52;;
39996;SDS011;25688;52.338;21.072;2022-08-01T13:02:33;5.80;;;1.90;;
39996;SDS011;25688;52.338;21.072;2022-08-01T13:04:59;3.50;;;1.42;;
39996;SDS011;25688;52.338;21.072;2022-08-01T13:10:28;5.20;;;1.88;;
39996;SDS011;25688;52.338;21.072;2022-08-01T13:12:57;4.10;;;1.60;;
39996;SDS011;25688;52.338;21.072;2022-08-01T13:15:24;4.78;;;1.73;;
39996;SDS011;25688;52.338;21.072;2022-08-01T13:17:53;5.38;;;1.60;;
39996;SDS011;25688;52.338;21.072;2022-08-01T13:20:29;5.38;;;1.63;;
39996;SDS011;25688;52.338;21.072;2022-08-01T13:23:14;6.25;;;1.70;;
39996;SDS011;25688;52.338;21.072;2022-08-01T13:25:54;4.93;;;1.65;;
39996;SDS011;25688;52.338;21.072;2022-08-01T13:28:24;4.72;;;2.00;;
39996;SDS011;25688;52.338;21.072;2022-08-01T13:31:04;3.78;;;2.00;;
39996;SDS011;25688;52.338;21.072;2022-08-01T13:33:42;4.68;;;1.58;;
39996;SDS011;25688;52.338;21.072;2022-08-01T13:36:09;4.38;;;1.63;;
39996;SDS011;25688;52.338;21.072;2022-08-01T13:38:36;6.15;;;1.83;;
39996;SDS011;25688;52.338;21.072;2022-08-01T13:41:20;6.53;;;1.83;;
39996;SDS011;25688;52.338;21.072;2022-08-01T13:43:46;3.30;;;1.60;;
39996;SDS011;25688;52.338;21.072;2022-08-01T13:46:12;5.20;;;1.65;;
39996;SDS011;25688;52.338;21.072;2022-08-01T13:48:38;10.13;;;2.33;;
39996;SDS011;25688;52.338;21.072;2022-08-01T13:51:04;5.00;;;2.00;;
39996;SDS011;25688;52.338;21.072;2022-08-01T13:53:29;3.45;;;1.75;;
39996;SDS011;25688;52.338;21.072;2022-08-01T13:55:55;4.43;;;1.75;;
39996;SDS011;25688;52.338;21.072;2022-08-01T13:58:21;3.05;;;1.70;;
39996;SDS011;25688;52.338;21.072;2022-08-01T14:00:47;4.05;;;1.77;;
39996;SDS011;25688;52.338;21.072;2022-08-01T14:03:13;3.28;;;1.70;;
39996;SDS011;25688;52.338;21.072;2022-08-01T14:05:39;3.00;;;1.77;;
39996;SDS011;25688;52.338;21.072;2022-08-01T14:08:05;7.00;;;1.95;;
39996;SDS011;25688;52.338;21.072;2022-08-01T14:10:31;5.35;;;1.90;;
39996;SDS011;25688;52.338;21.072;2022-08-01T14:12:57;5.25;;;2.20;;
39996;SDS011;25688;52.338;21.072;2022-08-01T14:15:23;5.97;;;2.40;;
39996;SDS011;25688;52.338;21.072;2022-08-01T14:17:49;4.97;;;2.17;;
39996;SDS011;25688;52.338;21.072;2022-08-01T14:20:16;3.78;;;1.90;;
39996;SDS011;25688;52.338;21.072;2022-08-01T14:22:47;4.75;;;2.05;;
39996;SDS011;25688;52.338;21.072;2022-08-01T14:25:13;3.67;;;2.10;;
39996;SDS011;25688;52.338;21.072;2022-08-01T14:27:38;4.00;;;2.10;;
39996;SDS011;25688;52.338;21.072;2022-08-01T14:30:06;4.38;;;2.20;;
39996;SDS011;25688;52.338;21.072;2022-08-01T14:32:33;3.88;;;2.00;;
39996;SDS011;25688;52.338;21.072;2022-08-01T14:35:02;6.75;;;2.15;;
39996;SDS011;25688;52.338;21.072;2022-08-01T14:37:29;5.05;;;2.45;;
39996;SDS011;25688;52.338;21.072;2022-08-01T14:39:56;5.28;;;2.55;;
39996;SDS011;25688;52.338;21.072;2022-08-01T14:42:22;7.50;;;3.05;;
39996;SDS011;25688;52.338;21.072;2022-08-01T14:44:48;7.57;;;3.10;;
39996;SDS011;25688;52.338;21.072;2022-08-01T14:47:14;6.82;;;3.60;;
39996;SDS011;25688;52.338;21.072;2022-08-01T14:49:39;5.75;;;3.80;;
39996;SDS011;25688;52.338;21.072;2022-08-01T14:52:05;6.10;;;3.65;;
39996;SDS011;25688;52.338;21.072;2022-08-01T14:54:31;7.28;;;3.45;;
39996;SDS011;25688;52.338;21.072;2022-08-01T14:56:57;7.43;;;3.50;;
39996;SDS011;25688;52.338;21.072;2022-08-01T14:59:22;5.38;;;3.60;;
39996;SDS011;25688;52.338;21.072;2022-08-01T15:01:48;5.80;;;3.90;;
39996;SDS011;25688;52.338;21.072;2022-08-01T15:04:14;6.97;;;3.63;;
39996;SDS011;25688;52.338;21.072;2022-08-01T15:06:39;6.03;;;3.50;;
39996;SDS011;25688;52.338;21.072;2022-08-01T15:09:09;8.48;;;3.50;;
39996;SDS011;25688;52.338;21.072;2022-08-01T15:11:35;6.68;;;3.10;;
39996;SDS011;25688;52.338;21.072;2022-08-01T15:14:01;4.90;;;3.00;;
39996;SDS011;25688;52.338;21.072;2022-08-01T15:16:46;5.65;;;2.92;;
39996;SDS011;25688;52.338;21.072;2022-08-01T15:19:12;5.80;;;3.15;;
39996;SDS011;25688;52.338;21.072;2022-08-01T15:21:38;4.60;;;2.90;;